Milton, New Hampshire
Current Conditions -  °F | °C
As of 4:51 PM on Wednesday 28 Jan 2015 (Local Time) from KDAW Reporting Station
Clear Clear  
Wind Chill: 14°   Ceiling: Unl
Heat Index: 22°   Visibility: 10mi
Dew Point:   Wind: 6mph
Humidity: 55%   Direction: 300°WNW
Pressure: 30.02"   Gusts: NA
Location:  43.41°N, 70.99°W
Report Text: KDAW 282151Z AUTO 30005KT 10SM CLR M06/M13 A3002 RMK AO2 SLP169 T10561133
Loading
Personal Weather Stations






























Interactive Weather Map New forecast layout! Learn more

10-Day Weather Forecast

Advertisements
Track Severe Weather on mobile